sensor_id;sensor_type;location;lat;lon;timestamp;pressure;altitude;pressure_sealevel;temperature;humidity
11499;BME280;5806;48.748;9.278;2023-04-08T00:00:17;101574.14;;;9.01;85.59
11499;BME280;5806;48.748;9.278;2023-04-08T00:02:45;101568.23;;;9.04;85.20
11499;BME280;5806;48.748;9.278;2023-04-08T00:05:12;101574.45;;;9.02;85.37
11499;BME280;5806;48.748;9.278;2023-04-08T00:07:40;101575.30;;;9.02;85.67
11499;BME280;5806;48.748;9.278;2023-04-08T00:10:08;101572.02;;;9.03;85.72
11499;BME280;5806;48.748;9.278;2023-04-08T00:12:35;101575.92;;;8.98;85.83
11499;BME280;5806;48.748;9.278;2023-04-08T00:15:03;101580.52;;;9.04;85.51
11499;BME280;5806;48.748;9.278;2023-04-08T00:17:31;101578.95;;;8.99;85.71
11499;BME280;5806;48.748;9.278;2023-04-08T00:19:58;101574.95;;;9.01;85.73
11499;BME280;5806;48.748;9.278;2023-04-08T00:22:26;101578.44;;;8.99;85.70
11499;BME280;5806;48.748;9.278;2023-04-08T00:24:54;101576.02;;;9.00;85.86
11499;BME280;5806;48.748;9.278;2023-04-08T00:27:21;101576.44;;;8.97;85.68
11499;BME280;5806;48.748;9.278;2023-04-08T00:29:50;101579.16;;;8.97;85.69
11499;BME280;5806;48.748;9.278;2023-04-08T00:32:18;101575.06;;;8.97;85.79
11499;BME280;5806;48.748;9.278;2023-04-08T00:34:45;101580.33;;;8.92;86.06
11499;BME280;5806;48.748;9.278;2023-04-08T00:37:13;101582.00;;;8.93;86.16
11499;BME280;5806;48.748;9.278;2023-04-08T00:39:40;101586.33;;;8.92;86.18
11499;BME280;5806;48.748;9.278;2023-04-08T00:42:08;101583.49;;;8.96;86.06
11499;BME280;5806;48.748;9.278;2023-04-08T00:44:36;101583.70;;;8.94;85.87
11499;BME280;5806;48.748;9.278;2023-04-08T00:47:03;101588.95;;;8.96;86.09
11499;BME280;5806;48.748;9.278;2023-04-08T00:49:31;101582.22;;;9.05;84.89
11499;BME280;5806;48.748;9.278;2023-04-08T00:51:59;101582.84;;;9.00;85.50
11499;BME280;5806;48.748;9.278;2023-04-08T00:54:27;101584.20;;;9.00;85.52
11499;BME280;5806;48.748;9.278;2023-04-08T00:56:54;101588.61;;;9.01;85.56
11499;BME280;5806;48.748;9.278;2023-04-08T00:59:22;101588.50;;;9.05;85.41
11499;BME280;5806;48.748;9.278;2023-04-08T01:02:11;101583.35;;;9.00;85.34
11499;BME280;5806;48.748;9.278;2023-04-08T01:04:53;101583.69;;;9.01;85.51
11499;BME280;5806;48.748;9.278;2023-04-08T01:07:28;101585.47;;;8.98;85.72
11499;BME280;5806;48.748;9.278;2023-04-08T01:10:04;101592.48;;;9.09;85.45
11499;BME280;5806;48.748;9.278;2023-04-08T01:12:29;101589.14;;;9.07;85.17
11499;BME280;5806;48.748;9.278;2023-04-08T01:15:03;101590.38;;;9.18;84.44
11499;BME280;5806;48.748;9.278;2023-04-08T01:17:32;101583.16;;;9.14;84.19
11499;BME280;5806;48.748;9.278;2023-04-08T01:20:02;101590.06;;;9.04;84.75
11499;BME280;5806;48.748;9.278;2023-04-08T01:25:09;101593.73;;;9.13;84.79
11499;BME280;5806;48.748;9.278;2023-04-08T01:27:39;101589.45;;;9.08;84.92
11499;BME280;5806;48.748;9.278;2023-04-08T01:30:07;101594.70;;;9.10;84.70
11499;BME280;5806;48.748;9.278;2023-04-08T01:32:36;101598.80;;;9.03;84.70
11499;BME280;5806;48.748;9.278;2023-04-08T01:35:05;101597.23;;;8.98;85.39
11499;BME280;5806;48.748;9.278;2023-04-08T01:37:34;101598.26;;;8.97;85.75
11499;BME280;5806;48.748;9.278;2023-04-08T01:40:04;101599.41;;;8.99;85.77
11499;BME280;5806;48.748;9.278;2023-04-08T01:42:33;101595.33;;;8.99;85.84
11499;BME280;5806;48.748;9.278;2023-04-08T01:45:03;101589.56;;;8.91;86.20
11499;BME280;5806;48.748;9.278;2023-04-08T01:47:31;101591.55;;;8.93;86.29
11499;BME280;5806;48.748;9.278;2023-04-08T01:50:00;101594.52;;;8.92;86.39
11499;BME280;5806;48.748;9.278;2023-04-08T01:52:29;101592.70;;;8.95;86.19
11499;BME280;5806;48.748;9.278;2023-04-08T01:54:56;101594.17;;;8.97;86.21
11499;BME280;5806;48.748;9.278;2023-04-08T01:57:26;101594.61;;;8.94;86.28
11499;BME280;5806;48.748;9.278;2023-04-08T01:59:57;101598.50;;;8.96;86.20
11499;BME280;5806;48.748;9.278;2023-04-08T02:02:25;101595.44;;;8.95;86.30
11499;BME280;5806;48.748;9.278;2023-04-08T02:04:54;101598.61;;;8.92;86.39
11499;BME280;5806;48.748;9.278;2023-04-08T02:07:21;101598.70;;;8.94;86.21
11499;BME280;5806;48.748;9.278;2023-04-08T02:09:50;101600.99;;;8.91;86.45
11499;BME280;5806;48.748;9.278;2023-04-08T02:12:17;101603.82;;;8.93;86.42
11499;BME280;5806;48.748;9.278;2023-04-08T02:14:45;101602.69;;;8.98;86.04
11499;BME280;5806;48.748;9.278;2023-04-08T02:17:30;101603.20;;;8.98;86.16
11499;BME280;5806;48.748;9.278;2023-04-08T02:20:10;101606.99;;;8.97;86.23
11499;BME280;5806;48.748;9.278;2023-04-08T02:25:33;101605.53;;;8.94;86.16
11499;BME280;5806;48.748;9.278;2023-04-08T02:28:03;101602.80;;;8.94;86.41
11499;BME280;5806;48.748;9.278;2023-04-08T02:30:32;101603.82;;;8.93;86.28
11499;BME280;5806;48.748;9.278;2023-04-08T02:33:03;101598.27;;;8.91;86.43
11499;BME280;5806;48.748;9.278;2023-04-08T02:35:32;101608.26;;;8.88;86.55
11499;BME280;5806;48.748;9.278;2023-04-08T02:38:00;101608.56;;;8.95;86.35
11499;BME280;5806;48.748;9.278;2023-04-08T02:40:32;101605.53;;;8.94;86.17
11499;BME280;5806;48.748;9.278;2023-04-08T02:43:00;101605.18;;;9.00;86.20
11499;BME280;5806;48.748;9.278;2023-04-08T02:45:30;101604.98;;;8.95;86.23
11499;BME280;5806;48.748;9.278;2023-04-08T02:48:01;101605.08;;;8.97;86.29
11499;BME280;5806;48.748;9.278;2023-04-08T02:50:28;101607.81;;;8.97;86.34
11499;BME280;5806;48.748;9.278;2023-04-08T02:52:56;101607.20;;;8.95;86.43
11499;BME280;5806;48.748;9.278;2023-04-08T02:55:23;101612.00;;;9.00;86.05
11499;BME280;5806;48.748;9.278;2023-04-08T02:57:51;101614.73;;;9.00;86.21
11499;BME280;5806;48.748;9.278;2023-04-08T03:00:18;101614.33;;;8.96;86.16
11499;BME280;5806;48.748;9.278;2023-04-08T03:02:46;101613.06;;;8.99;86.18
11499;BME280;5806;48.748;9.278;2023-04-08T03:05:13;101620.42;;;8.98;86.35
11499;BME280;5806;48.748;9.278;2023-04-08T03:07:42;101613.61;;;8.98;86.32
11499;BME280;5806;48.748;9.278;2023-04-08T03:10:09;101615.17;;;8.97;86.26
11499;BME280;5806;48.748;9.278;2023-04-08T03:12:37;101615.37;;;9.08;85.81
11499;BME280;5806;48.748;9.278;2023-04-08T03:15:05;101617.05;;;9.03;85.77
11499;BME280;5806;48.748;9.278;2023-04-08T03:17:32;101619.48;;;8.95;86.01
11499;BME280;5806;48.748;9.278;2023-04-08T03:20:00;101612.34;;;8.94;86.29
11499;BME280;5806;48.748;9.278;2023-04-08T03:22:30;101616.55;;;8.97;86.38
11499;BME280;5806;48.748;9.278;2023-04-08T03:24:57;101613.37;;;8.87;86.45
11499;BME280;5806;48.748;9.278;2023-04-08T03:27:25;101615.89;;;8.95;86.44
11499;BME280;5806;48.748;9.278;2023-04-08T03:29:53;101623.05;;;8.96;86.42
11499;BME280;5806;48.748;9.278;2023-04-08T03:32:20;101625.44;;;8.95;86.48
11499;BME280;5806;48.748;9.278;2023-04-08T03:34:48;101619.38;;;8.99;85.87
11499;BME280;5806;48.748;9.278;2023-04-08T03:37:17;101621.55;;;9.00;85.68
11499;BME280;5806;48.748;9.278;2023-04-08T03:39:44;101625.99;;;8.94;86.04
11499;BME280;5806;48.748;9.278;2023-04-08T03:42:12;101626.20;;;8.93;86.10
11499;BME280;5806;48.748;9.278;2023-04-08T03:44:39;101625.14;;;8.94;86.18
11499;BME280;5806;48.748;9.278;2023-04-08T03:47:07;101629.54;;;8.95;86.16
11499;BME280;5806;48.748;9.278;2023-04-08T03:49:34;101626.40;;;8.98;85.74
11499;BME280;5806;48.748;9.278;2023-04-08T03:52:02;101627.56;;;8.93;85.91
11499;BME280;5806;48.748;9.278;2023-04-08T03:54:29;101628.72;;;8.94;85.89
11499;BME280;5806;48.748;9.278;2023-04-08T03:56:57;101623.36;;;8.97;86.07
11499;BME280;5806;48.748;9.278;2023-04-08T03:59:24;101622.92;;;8.93;85.71
11499;BME280;5806;48.748;9.278;2023-04-08T04:01:52;101629.74;;;8.93;85.88
11499;BME280;5806;48.748;9.278;2023-04-08T04:04:19;101627.77;;;8.91;86.15
11499;BME280;5806;48.748;9.278;2023-04-08T04:06:47;101619.98;;;8.95;85.95
11499;BME280;5806;48.748;9.278;2023-04-08T04:09:14;101626.09;;;8.97;85.95
11499;BME280;5806;48.748;9.278;2023-04-08T04:11:42;101627.87;;;8.94;85.91
11499;BME280;5806;48.748;9.278;2023-04-08T04:14:09;101629.84;;;8.89;86.22
11499;BME280;5806;48.748;9.278;2023-04-08T04:16:36;101629.44;;;8.86;86.43
11499;BME280;5806;48.748;9.278;2023-04-08T04:19:04;101630.70;;;8.83;86.64
11499;BME280;5806;48.748;9.278;2023-04-08T04:21:32;101633.12;;;8.89;86.46
11499;BME280;5806;48.748;9.278;2023-04-08T04:23:59;101624.83;;;8.93;86.11
11499;BME280;5806;48.748;9.278;2023-04-08T04:26:27;101638.67;;;8.91;86.08
11499;BME280;5806;48.748;9.278;2023-04-08T04:28:54;101642.88;;;8.87;86.06
11499;BME280;5806;48.748;9.278;2023-04-08T04:31:23;101647.68;;;8.79;86.26
11499;BME280;5806;48.748;9.278;2023-04-08T04:33:54;101646.31;;;8.79;86.44
11499;BME280;5806;48.748;9.278;2023-04-08T04:36:22;101639.19;;;8.78;86.35
11499;BME280;5806;48.748;9.278;2023-04-08T04:38:50;101645.80;;;8.73;86.63
11499;BME280;5806;48.748;9.278;2023-04-08T04:41:17;101645.91;;;8.75;86.81
11499;BME280;5806;48.748;9.278;2023-04-08T04:43:45;101653.88;;;8.77;86.54
11499;BME280;5806;48.748;9.278;2023-04-08T04:46:13;101652.11;;;8.80;86.47
11499;BME280;5806;48.748;9.278;2023-04-08T04:48:42;101656.51;;;8.81;86.43
11499;BME280;5806;48.748;9.278;2023-04-08T04:51:10;101649.89;;;8.79;86.35
11499;BME280;5806;48.748;9.278;2023-04-08T04:53:37;101653.68;;;8.78;86.35
11499;BME280;5806;48.748;9.278;2023-04-08T04:56:05;101649.89;;;8.73;86.53
11499;BME280;5806;48.748;9.278;2023-04-08T04:58:32;101656.16;;;8.73;86.52
11499;BME280;5806;48.748;9.278;2023-04-08T05:01:01;101654.59;;;8.68;86.49
11499;BME280;5806;48.748;9.278;2023-04-08T05:03:29;101653.97;;;8.66;86.64
11499;BME280;5806;48.748;9.278;2023-04-08T05:05:57;101654.18;;;8.65;86.73
11499;BME280;5806;48.748;9.278;2023-04-08T05:08:24;101653.43;;;8.67;86.07
11499;BME280;5806;48.748;9.278;2023-04-08T05:10:52;101654.18;;;8.65;86.14
11499;BME280;5806;48.748;9.278;2023-04-08T05:13:22;101660.78;;;8.60;86.40
11499;BME280;5806;48.748;9.278;2023-04-08T05:15:49;101661.11;;;8.74;84.87
11499;BME280;5806;48.748;9.278;2023-04-08T05:18:17;101662.98;;;8.73;85.25
11499;BME280;5806;48.748;9.278;2023-04-08T05:20:45;101664.14;;;8.68;85.76
11499;BME280;5806;48.748;9.278;2023-04-08T05:23:12;101667.27;;;8.65;86.16
11499;BME280;5806;48.748;9.278;2023-04-08T05:25:40;101674.63;;;8.65;86.19
11499;BME280;5806;48.748;9.278;2023-04-08T05:28:07;101670.86;;;8.72;86.09
11499;BME280;5806;48.748;9.278;2023-04-08T05:30:35;101672.53;;;8.73;86.12
11499;BME280;5806;48.748;9.278;2023-04-08T05:33:02;101675.70;;;8.77;86.15
11499;BME280;5806;48.748;9.278;2023-04-08T05:35:30;101686.16;;;8.67;86.11
11499;BME280;5806;48.748;9.278;2023-04-08T05:37:57;101684.08;;;8.69;86.11
11499;BME280;5806;48.748;9.278;2023-04-08T05:40:26;101688.94;;;8.80;85.82
11499;BME280;5806;48.748;9.278;2023-04-08T05:42:54;101688.18;;;8.75;85.80
11499;BME280;5806;48.748;9.278;2023-04-08T05:45:21;101685.55;;;8.71;85.78
11499;BME280;5806;48.748;9.278;2023-04-08T05:47:49;101692.98;;;8.67;86.02
11499;BME280;5806;48.748;9.278;2023-04-08T05:50:16;101698.23;;;8.68;86.38
11499;BME280;5806;48.748;9.278;2023-04-08T05:52:44;101700.33;;;8.60;85.73
11499;BME280;5806;48.748;9.278;2023-04-08T05:55:13;101698.63;;;8.65;85.41
11499;BME280;5806;48.748;9.278;2023-04-08T05:57:41;101696.55;;;8.67;85.77
11499;BME280;5806;48.748;9.278;2023-04-08T06:00:09;101706.61;;;8.67;85.97
11499;BME280;5806;48.748;9.278;2023-04-08T06:02:37;101705.49;;;8.72;85.82
11499;BME280;5806;48.748;9.278;2023-04-08T06:05:05;101711.05;;;8.68;85.96
11499;BME280;5806;48.748;9.278;2023-04-08T06:07:33;101714.50;;;8.72;85.36
11499;BME280;5806;48.748;9.278;2023-04-08T06:10:01;101717.52;;;8.67;84.86
11499;BME280;5806;48.748;9.278;2023-04-08T06:12:28;101718.48;;;8.70;84.72
11499;BME280;5806;48.748;9.278;2023-04-08T06:14:56;101721.29;;;8.59;85.30
11499;BME280;5806;48.748;9.278;2023-04-08T06:17:23;101722.97;;;8.67;85.02
11499;BME280;5806;48.748;9.278;2023-04-08T06:19:51;101726.23;;;8.60;84.59
11499;BME280;5806;48.748;9.278;2023-04-08T06:22:19;101729.27;;;8.61;84.24
11499;BME280;5806;48.748;9.278;2023-04-08T06:24:47;101733.56;;;8.59;84.57
11499;BME280;5806;48.748;9.278;2023-04-08T06:27:14;101729.56;;;8.55;83.88
11499;BME280;5806;48.748;9.278;2023-04-08T06:29:42;101728.33;;;8.64;83.80
11499;BME280;5806;48.748;9.278;2023-04-08T06:32:09;101727.34;;;8.55;84.59
11499;BME280;5806;48.748;9.278;2023-04-08T06:34:37;101735.95;;;8.52;84.35
11499;BME280;5806;48.748;9.278;2023-04-08T06:37:04;101730.41;;;8.56;85.06
11499;BME280;5806;48.748;9.278;2023-04-08T06:39:32;101741.00;;;8.61;84.72
11499;BME280;5806;48.748;9.278;2023-04-08T06:42:00;101739.11;;;8.55;84.56
11499;BME280;5806;48.748;9.278;2023-04-08T06:44:27;101744.56;;;8.55;84.94
11499;BME280;5806;48.748;9.278;2023-04-08T06:46:55;101742.80;;;8.58;84.23
11499;BME280;5806;48.748;9.278;2023-04-08T06:49:23;101739.00;;;8.53;84.65
11499;BME280;5806;48.748;9.278;2023-04-08T06:51:52;101743.30;;;8.58;84.47
11499;BME280;5806;48.748;9.278;2023-04-08T06:54:19;101746.01;;;8.51;84.96
11499;BME280;5806;48.748;9.278;2023-04-08T06:56:47;101746.06;;;8.71;84.34
11499;BME280;5806;48.748;9.278;2023-04-08T06:59:14;101748.69;;;8.68;83.90
11499;BME280;5806;48.748;9.278;2023-04-08T07:01:42;101752.27;;;8.69;84.28
11499;BME280;5806;48.748;9.278;2023-04-08T07:04:09;101752.68;;;8.72;85.00
11499;BME280;5806;48.748;9.278;2023-04-08T07:06:37;101751.52;;;8.71;84.49
11499;BME280;5806;48.748;9.278;2023-04-08T07:09:04;101752.19;;;8.79;84.91
11499;BME280;5806;48.748;9.278;2023-04-08T07:11:32;101752.50;;;8.80;83.46
11499;BME280;5806;48.748;9.278;2023-04-08T07:13:59;101753.95;;;8.76;83.64
11499;BME280;5806;48.748;9.278;2023-04-08T07:16:28;101761.13;;;8.84;83.97
11499;BME280;5806;48.748;9.278;2023-04-08T07:18:55;101758.59;;;8.76;84.55
11499;BME280;5806;48.748;9.278;2023-04-08T07:21:23;101752.96;;;8.90;84.29
11499;BME280;5806;48.748;9.278;2023-04-08T07:23:51;101757.77;;;8.88;84.27
11499;BME280;5806;48.748;9.278;2023-04-08T07:26:18;101761.61;;;8.70;84.77
11499;BME280;5806;48.748;9.278;2023-04-08T07:28:46;101768.87;;;8.87;83.94
11499;BME280;5806;48.748;9.278;2023-04-08T07:31:15;101764.69;;;8.91;82.97
11499;BME280;5806;48.748;9.278;2023-04-08T07:33:43;101770.45;;;8.85;84.08
11499;BME280;5806;48.748;9.278;2023-04-08T07:36:13;101779.27;;;8.81;84.31
11499;BME280;5806;48.748;9.278;2023-04-08T07:38:43;101776.05;;;8.88;85.00
11499;BME280;5806;48.748;9.278;2023-04-08T07:41:10;101779.95;;;8.96;84.09
11499;BME280;5806;48.748;9.278;2023-04-08T07:43:38;101769.84;;;8.90;83.21
11499;BME280;5806;48.748;9.278;2023-04-08T07:46:06;101774.91;;;8.99;83.73
11499;BME280;5806;48.748;9.278;2023-04-08T07:48:34;101783.95;;;9.06;83.73
11499;BME280;5806;48.748;9.278;2023-04-08T07:51:04;101788.34;;;9.01;83.83
11499;BME280;5806;48.748;9.278;2023-04-08T07:53:32;101791.39;;;9.02;84.37
11499;BME280;5806;48.748;9.278;2023-04-08T07:56:00;101794.53;;;9.05;84.29
11499;BME280;5806;48.748;9.278;2023-04-08T07:58:29;101796.63;;;8.97;84.27
11499;BME280;5806;48.748;9.278;2023-04-08T08:00:57;101800.28;;;9.00;84.16
11499;BME280;5806;48.748;9.278;2023-04-08T08:03:25;101809.23;;;9.04;82.89
11499;BME280;5806;48.748;9.278;2023-04-08T08:05:52;101809.14;;;9.08;82.93
11499;BME280;5806;48.748;9.278;2023-04-08T08:08:20;101804.38;;;9.00;84.33
11499;BME280;5806;48.748;9.278;2023-04-08T08:10:47;101807.48;;;9.20;83.46
11499;BME280;5806;48.748;9.278;2023-04-08T08:13:15;101809.36;;;9.20;84.09
11499;BME280;5806;48.748;9.278;2023-04-08T08:15:44;101808.84;;;9.14;83.22
11499;BME280;5806;48.748;9.278;2023-04-08T08:18:11;101817.34;;;9.21;83.77
11499;BME280;5806;48.748;9.278;2023-04-08T08:20:39;101818.09;;;9.19;82.03
11499;BME280;5806;48.748;9.278;2023-04-08T08:23:06;101819.78;;;9.27;83.04
11499;BME280;5806;48.748;9.278;2023-04-08T08:25:35;101821.23;;;9.23;83.92
11499;BME280;5806;48.748;9.278;2023-04-08T08:28:02;101830.39;;;9.26;84.06
11499;BME280;5806;48.748;9.278;2023-04-08T08:30:31;101826.50;;;9.24;84.86
11499;BME280;5806;48.748;9.278;2023-04-08T08:32:59;101829.35;;;9.40;84.29
11499;BME280;5806;48.748;9.278;2023-04-08T08:35:26;101829.35;;;9.40;83.48
11499;BME280;5806;48.748;9.278;2023-04-08T08:37:54;101832.22;;;9.49;83.41
11499;BME280;5806;48.748;9.278;2023-04-08T08:40:21;101829.25;;;9.44;83.28
11499;BME280;5806;48.748;9.278;2023-04-08T08:42:50;101839.35;;;9.43;83.65
11499;BME280;5806;48.748;9.278;2023-04-08T08:45:21;101834.30;;;9.40;83.47
11499;BME280;5806;48.748;9.278;2023-04-08T08:47:48;101833.69;;;9.45;83.71
11499;BME280;5806;48.748;9.278;2023-04-08T08:50:17;101836.92;;;9.38;83.99
11499;BME280;5806;48.748;9.278;2023-04-08T08:52:50;101840.71;;;9.37;83.68
11499;BME280;5806;48.748;9.278;2023-04-08T08:55:20;101844.16;;;9.35;83.37
11499;BME280;5806;48.748;9.278;2023-04-08T08:57:50;101836.92;;;9.38;83.34
11499;BME280;5806;48.748;9.278;2023-04-08T09:00:18;101835.88;;;9.52;83.43
11499;BME280;5806;48.748;9.278;2023-04-08T09:02:45;101833.89;;;9.50;83.27
11499;BME280;5806;48.748;9.278;2023-04-08T09:05:13;101831.98;;;9.44;83.70
11499;BME280;5806;48.748;9.278;2023-04-08T09:07:40;101839.56;;;9.48;82.81
11499;BME280;5806;48.748;9.278;2023-04-08T09:10:09;101838.70;;;9.41;83.56
11499;BME280;5806;48.748;9.278;2023-04-08T09:12:54;101839.87;;;9.49;83.37
11499;BME280;5806;48.748;9.278;2023-04-08T09:15:22;101840.52;;;9.45;84.12
11499;BME280;5806;48.748;9.278;2023-04-08T09:17:49;101848.60;;;9.42;82.51
11499;BME280;5806;48.748;9.278;2023-04-08T09:20:17;101850.07;;;9.45;83.34
11499;BME280;5806;48.748;9.278;2023-04-08T09:22:55;101855.62;;;9.41;82.39
11499;BME280;5806;48.748;9.278;2023-04-08T09:25:28;101851.00;;;9.48;81.90
11499;BME280;5806;48.748;9.278;2023-04-08T09:27:58;101856.80;;;9.49;83.34
11499;BME280;5806;48.748;9.278;2023-04-08T09:30:26;101855.45;;;9.62;81.40
11499;BME280;5806;48.748;9.278;2023-04-08T09:32:55;101864.16;;;9.68;82.09
11499;BME280;5806;48.748;9.278;2023-04-08T09:35:24;101854.39;;;9.76;81.14
11499;BME280;5806;48.748;9.278;2023-04-08T09:37:51;101856.81;;;9.68;79.28
11499;BME280;5806;48.748;9.278;2023-04-08T09:40:19;101859.95;;;9.78;80.97
11499;BME280;5806;48.748;9.278;2023-04-08T09:42:48;101860.49;;;9.97;81.26
11499;BME280;5806;48.748;9.278;2023-04-08T09:45:19;101847.29;;;10.08;79.98
11499;BME280;5806;48.748;9.278;2023-04-08T09:50:30;101850.31;;;10.15;80.05
11499;BME280;5806;48.748;9.278;2023-04-08T09:53:01;101856.20;;;10.12;78.67
11499;BME280;5806;48.748;9.278;2023-04-08T09:55:30;101866.06;;;9.93;79.87
11499;BME280;5806;48.748;9.278;2023-04-08T09:58:02;101860.73;;;10.16;80.60
11499;BME280;5806;48.748;9.278;2023-04-08T10:00:39;101862.82;;;10.20;80.25
11499;BME280;5806;48.748;9.278;2023-04-08T10:05:56;101852.48;;;10.42;78.12
11499;BME280;5806;48.748;9.278;2023-04-08T10:08:25;101845.67;;;10.29;77.69
11499;BME280;5806;48.748;9.278;2023-04-08T10:10:54;101846.84;;;10.30;78.58
11499;BME280;5806;48.748;9.278;2023-04-08T10:13:23;101847.64;;;10.37;78.45
11499;BME280;5806;48.748;9.278;2023-04-08T10:18:40;101850.69;;;10.45;76.21
11499;BME280;5806;48.748;9.278;2023-04-08T10:21:31;101846.17;;;10.48;73.96
11499;BME280;5806;48.748;9.278;2023-04-08T10:23:59;101857.22;;;10.44;77.84
11499;BME280;5806;48.748;9.278;2023-04-08T10:26:35;101855.62;;;10.52;77.74
11499;BME280;5806;48.748;9.278;2023-04-08T10:31:49;101860.70;;;10.35;76.19
11499;BME280;5806;48.748;9.278;2023-04-08T10:34:22;101866.55;;;10.45;77.74
11499;BME280;5806;48.748;9.278;2023-04-08T10:36:52;101866.25;;;10.44;74.69
11499;BME280;5806;48.748;9.278;2023-04-08T10:39:21;101860.45;;;10.50;75.40
11499;BME280;5806;48.748;9.278;2023-04-08T10:41:50;101865.94;;;10.43;79.02
11499;BME280;5806;48.748;9.278;2023-04-08T10:44:26;101867.08;;;10.51;76.87
11499;BME280;5806;48.748;9.278;2023-04-08T10:46:54;101863.63;;;10.40;74.92
11499;BME280;5806;48.748;9.278;2023-04-08T10:49:21;101865.41;;;10.37;77.61
11499;BME280;5806;48.748;9.278;2023-04-08T10:51:49;101859.22;;;10.39;77.51
11499;BME280;5806;48.748;9.278;2023-04-08T10:54:18;101847.08;;;10.51;77.30
11499;BME280;5806;48.748;9.278;2023-04-08T10:56:47;101846.28;;;10.44;77.58
11499;BME280;5806;48.748;9.278;2023-04-08T10:59:17;101845.43;;;10.43;79.02
11499;BME280;5806;48.748;9.278;2023-04-08T11:01:45;101851.52;;;10.52;76.70
11499;BME280;5806;48.748;9.278;2023-04-08T11:04:14;101847.23;;;10.75;74.95
11499;BME280;5806;48.748;9.278;2023-04-08T11:06:44;101839.86;;;10.69;69.39
11499;BME280;5806;48.748;9.278;2023-04-08T11:09:13;101847.86;;;10.71;74.78
11499;BME280;5806;48.748;9.278;2023-04-08T11:11:44;101839.11;;;10.78;70.18
11499;BME280;5806;48.748;9.278;2023-04-08T11:14:12;101840.78;;;10.79;71.17
11499;BME280;5806;48.748;9.278;2023-04-08T11:16:40;101840.05;;;10.81;73.25
11499;BME280;5806;48.748;9.278;2023-04-08T11:19:07;101841.59;;;10.64;74.99
11499;BME280;5806;48.748;9.278;2023-04-08T11:21:35;101833.59;;;10.62;76.06
11499;BME280;5806;48.748;9.278;2023-04-08T11:24:11;101837.22;;;10.78;74.74
11499;BME280;5806;48.748;9.278;2023-04-08T11:26:39;101830.50;;;10.74;73.37
11499;BME280;5806;48.748;9.278;2023-04-08T11:29:09;101832.69;;;10.75;74.12
11499;BME280;5806;48.748;9.278;2023-04-08T11:31:40;101837.53;;;10.79;76.02
11499;BME280;5806;48.748;9.278;2023-04-08T11:34:08;101834.88;;;10.82;69.45
11499;BME280;5806;48.748;9.278;2023-04-08T11:36:35;101828.16;;;10.78;70.32
11499;BME280;5806;48.748;9.278;2023-04-08T11:39:09;101831.99;;;10.70;66.42
11499;BME280;5806;48.748;9.278;2023-04-08T11:41:38;101836.92;;;10.71;71.92
11499;BME280;5806;48.748;9.278;2023-04-08T11:44:06;101844.17;;;10.39;67.91
11499;BME280;5806;48.748;9.278;2023-04-08T11:46:34;101838.29;;;10.42;70.46
11499;BME280;5806;48.748;9.278;2023-04-08T11:49:06;101829.77;;;10.70;64.91
11499;BME280;5806;48.748;9.278;2023-04-08T11:51:52;101833.81;;;10.61;63.16
11499;BME280;5806;48.748;9.278;2023-04-08T11:54:05;101826.83;;;10.71;63.80
11499;BME280;5806;48.748;9.278;2023-04-08T11:56:43;101831.69;;;10.63;67.45
11499;BME280;5806;48.748;9.278;2023-04-08T11:59:13;101841.08;;;10.58;65.35
11499;BME280;5806;48.748;9.278;2023-04-08T12:01:40;101831.70;;;10.56;67.28
11499;BME280;5806;48.748;9.278;2023-04-08T12:04:10;101835.51;;;10.55;67.10
11499;BME280;5806;48.748;9.278;2023-04-08T12:06:37;101829.41;;;10.60;68.58
11499;BME280;5806;48.748;9.278;2023-04-08T12:09:06;101831.17;;;10.63;69.29
11499;BME280;5806;48.748;9.278;2023-04-08T12:11:34;101826.58;;;10.79;67.38
11499;BME280;5806;48.748;9.278;2023-04-08T12:14:01;101839.96;;;10.78;65.80
11499;BME280;5806;48.748;9.278;2023-04-08T12:16:29;101839.50;;;10.81;63.12
11499;BME280;5806;48.748;9.278;2023-04-08T12:18:57;101835.16;;;10.67;61.53
11499;BME280;5806;48.748;9.278;2023-04-08T12:21:24;101834.36;;;10.82;64.88
11499;BME280;5806;48.748;9.278;2023-04-08T12:23:53;101838.38;;;10.80;66.16
11499;BME280;5806;48.748;9.278;2023-04-08T12:26:20;101843.70;;;10.90;60.40
11499;BME280;5806;48.748;9.278;2023-04-08T12:28:48;101837.37;;;10.90;62.38
11499;BME280;5806;48.748;9.278;2023-04-08T12:31:15;101838.45;;;11.04;67.22
11499;BME280;5806;48.748;9.278;2023-04-08T12:33:43;101841.57;;;10.92;64.12
11499;BME280;5806;48.748;9.278;2023-04-08T12:36:10;101841.45;;;10.96;64.88
11499;BME280;5806;48.748;9.278;2023-04-08T12:38:37;101841.96;;;10.96;67.45
11499;BME280;5806;48.748;9.278;2023-04-08T12:41:05;101838.13;;;10.88;63.81
11499;BME280;5806;48.748;9.278;2023-04-08T12:43:35;101835.91;;;10.87;68.01
11499;BME280;5806;48.748;9.278;2023-04-08T12:46:01;101839.72;;;10.86;66.71
11499;BME280;5806;48.748;9.278;2023-04-08T12:48:29;101842.30;;;10.97;66.59
11499;BME280;5806;48.748;9.278;2023-04-08T12:50:57;101836.27;;;10.97;64.50
11499;BME280;5806;48.748;9.278;2023-04-08T12:53:24;101828.79;;;11.02;61.56
11499;BME280;5806;48.748;9.278;2023-04-08T12:55:52;101827.90;;;11.08;64.49
11499;BME280;5806;48.748;9.278;2023-04-08T12:58:21;101830.63;;;11.14;64.06
11499;BME280;5806;48.748;9.278;2023-04-08T13:00:50;101825.97;;;11.15;63.73
11499;BME280;5806;48.748;9.278;2023-04-08T13:03:18;101826.91;;;11.18;62.63
11499;BME280;5806;48.748;9.278;2023-04-08T13:05:45;101818.56;;;11.22;60.19
11499;BME280;5806;48.748;9.278;2023-04-08T13:08:13;101820.61;;;11.33;63.22
11499;BME280;5806;48.748;9.278;2023-04-08T13:10:42;101824.44;;;11.25;62.57
11499;BME280;5806;48.748;9.278;2023-04-08T13:13:09;101834.17;;;11.37;60.59
11499;BME280;5806;48.748;9.278;2023-04-08T13:15:38;101823.06;;;11.25;59.13
11499;BME280;5806;48.748;9.278;2023-04-08T13:18:06;101827.24;;;11.34;61.42
11499;BME280;5806;48.748;9.278;2023-04-08T13:20:33;101826.87;;;11.24;62.36
11499;BME280;5806;48.748;9.278;2023-04-08T13:23:01;101833.45;;;11.32;59.64
11499;BME280;5806;48.748;9.278;2023-04-08T13:25:29;101833.11;;;11.22;59.92
11499;BME280;5806;48.748;9.278;2023-04-08T13:27:56;101834.56;;;11.25;57.31
11499;BME280;5806;48.748;9.278;2023-04-08T13:30:24;101836.37;;;11.22;62.63